Weather at Logan International Airport

Public forecast

Using degrees Fahrenheit for public forecast. Weather courtesy of forecast.io.

Current aviation weather report (METAR) for Logan International Airport

2022/11/30 09:54 (retrieved 16 minutes ago)

KBOS 300954Z 16005KT 10SM OVC036 06/02 A3024 RMK AO2 SLP238 T00610017

Aviation forecast (TAF) for Logan International Airport

2022/11/30 09:13 Ammendment (retrieved 57 minutes ago)

TAF AMD KBOS 300904Z 3009/0112 14007KT P6SM SCT025 OVC035 FM301300 14008KT P6SM BKN025 FM301800 15018G30KT P6SM BKN025 FM302100 17021G37KT 3SM -RA BR OVC020 FM010000 19023G44KT 3SM +RA BR OVC010 FM010200 28016G30KT P6SM BKN080